createdAt,value
2023-01-03T00:01:32.836Z,2.22
2023-01-03T00:04:01.105Z,1.60
2023-01-03T00:06:37.208Z,1.70
2023-01-03T00:09:09.380Z,1.73
2023-01-03T00:12:01.132Z,1.50
2023-01-03T00:14:30.581Z,1.95
2023-01-03T00:17:00.711Z,2.50
2023-01-03T00:19:30.413Z,1.50
2023-01-03T00:21:58.593Z,1.65
2023-01-03T00:24:26.194Z,2.00
2023-01-03T00:26:54.167Z,1.42
2023-01-03T00:29:47.050Z,1.33
2023-01-03T00:32:14.984Z,1.58
2023-01-03T00:34:45.824Z,1.75
2023-01-03T00:37:14.953Z,1.35
2023-01-03T00:40:08.722Z,2.03
2023-01-03T00:42:56.090Z,1.83
2023-01-03T00:45:25.683Z,1.45
2023-01-03T00:47:59.279Z,1.73
2023-01-03T00:50:26.132Z,1.35
2023-01-03T00:52:58.091Z,1.63
2023-01-03T00:55:31.150Z,2.17
2023-01-03T00:57:58.131Z,1.38
2023-01-03T01:00:31.455Z,1.35
2023-01-03T01:03:29.366Z,1.60
2023-01-03T01:05:56.301Z,1.67
2023-01-03T01:08:49.786Z,1.17
2023-01-03T01:11:19.080Z,1.30
2023-01-03T01:13:46.833Z,1.50
2023-01-03T01:16:18.864Z,1.05
2023-01-03T01:18:55.949Z,1.08
2023-01-03T01:21:28.076Z,1.10
2023-01-03T01:24:02.428Z,1.15
2023-01-03T01:26:30.170Z,1.73
2023-01-03T01:28:58.254Z,1.33
2023-01-03T01:31:31.579Z,1.10
2023-01-03T01:34:00.152Z,1.38
2023-01-03T01:36:30.935Z,1.02
2023-01-03T01:39:03.922Z,1.38
2023-01-03T01:41:57.581Z,1.52
2023-01-03T01:44:51.966Z,1.02
2023-01-03T01:47:41.323Z,1.45
2023-01-03T01:50:23.278Z,1.20
2023-01-03T01:53:20.511Z,1.38
2023-01-03T01:56:22.560Z,1.67
2023-01-03T01:58:52.773Z,1.25
2023-01-03T02:01:21.832Z,1.55
2023-01-03T02:04:17.928Z,1.40
2023-01-03T02:06:46.221Z,1.80
2023-01-03T02:09:14.200Z,1.33
2023-01-03T02:14:49.225Z,2.05
2023-01-03T02:17:51.516Z,1.40
2023-01-03T02:20:23.411Z,1.67
2023-01-03T02:23:28.185Z,1.70
2023-01-03T02:26:11.210Z,1.63
2023-01-03T02:29:17.881Z,1.73
2023-01-03T02:32:03.319Z,1.60
2023-01-03T02:38:08.409Z,2.13
2023-01-03T02:40:45.483Z,1.92
2023-01-03T02:43:25.846Z,2.00
2023-01-03T02:45:58.511Z,1.98
2023-01-03T02:51:53.438Z,1.60
2023-01-03T02:54:38.847Z,1.50
2023-01-03T02:57:10.746Z,1.83
2023-01-03T02:59:46.472Z,1.80
2023-01-03T03:02:16.326Z,2.08
2023-01-03T03:04:47.018Z,2.22
2023-01-03T03:07:26.696Z,2.58
2023-01-03T03:10:14.910Z,1.75
2023-01-03T03:16:09.021Z,2.00
2023-01-03T03:18:59.116Z,1.70
2023-01-03T03:21:50.528Z,1.55
2023-01-03T03:24:43.132Z,1.27
2023-01-03T03:27:57.849Z,2.40
2023-01-03T03:30:33.680Z,1.60
2023-01-03T03:33:06.254Z,1.75
2023-01-03T03:35:46.136Z,2.08
2023-01-03T03:38:45.981Z,1.88
2023-01-03T03:41:48.558Z,2.25
2023-01-03T03:44:49.772Z,2.00
2023-01-03T03:47:24.301Z,1.77
2023-01-03T03:49:54.757Z,2.22
2023-01-03T03:52:29.653Z,2.65
2023-01-03T03:55:09.254Z,2.10
2023-01-03T03:57:41.185Z,2.53
2023-01-03T04:00:15.447Z,2.10
2023-01-03T04:05:50.760Z,1.90
2023-01-03T04:11:08.372Z,2.40
2023-01-03T04:13:38.192Z,1.92
2023-01-03T04:16:07.168Z,2.40
2023-01-03T04:19:00.154Z,2.50
2023-01-03T04:21:52.094Z,2.13
2023-01-03T04:24:24.247Z,1.90
2023-01-03T04:26:52.150Z,2.28
2023-01-03T04:29:44.233Z,2.13
2023-01-03T04:32:12.189Z,2.38
2023-01-03T04:34:40.188Z,2.30
2023-01-03T04:37:08.136Z,2.53
2023-01-03T04:40:00.176Z,2.92
2023-01-03T04:42:46.762Z,2.40
2023-01-03T04:45:20.138Z,2.72
2023-01-03T04:47:48.130Z,2.50
2023-01-03T04:50:16.163Z,2.85
2023-01-03T04:52:44.076Z,2.85
2023-01-03T04:55:13.204Z,2.55
2023-01-03T04:57:40.068Z,2.78
2023-01-03T05:00:08.841Z,2.80
2023-01-03T05:03:02.088Z,2.70
2023-01-03T05:05:30.131Z,3.17
2023-01-03T05:07:58.094Z,2.90
2023-01-03T05:10:52.892Z,2.97
2023-01-03T05:13:26.393Z,2.72
2023-01-03T05:15:54.079Z,2.63
2023-01-03T05:18:27.154Z,2.67
2023-01-03T05:21:12.655Z,2.72
2023-01-03T05:24:25.688Z,2.45
2023-01-03T05:26:54.361Z,2.88
2023-01-03T05:29:22.701Z,2.78
2023-01-03T05:31:56.797Z,3.10
2023-01-03T05:34:24.119Z,3.20
2023-01-03T05:37:16.096Z,3.03
2023-01-03T05:42:40.212Z,2.97
2023-01-03T05:45:08.834Z,3.05
2023-01-03T05:50:28.480Z,2.95
2023-01-03T05:52:56.205Z,3.20
2023-01-03T05:55:24.854Z,3.20
2023-01-03T05:57:53.247Z,2.97
2023-01-03T06:00:46.141Z,3.17
2023-01-03T06:03:14.232Z,3.10
2023-01-03T06:05:49.619Z,2.65
2023-01-03T06:08:18.074Z,3.17
2023-01-03T06:10:51.201Z,3.20
2023-01-03T06:13:18.097Z,3.03
2023-01-03T06:16:11.128Z,2.92
2023-01-03T06:21:37.023Z,2.75
2023-01-03T06:24:07.748Z,3.55
2023-01-03T06:27:01.801Z,3.33
2023-01-03T06:29:30.142Z,3.38
2023-01-03T06:32:00.200Z,2.88
2023-01-03T06:34:32.096Z,3.22
2023-01-03T06:37:00.137Z,3.22
2023-01-03T06:39:28.122Z,3.53
2023-01-03T06:41:56.102Z,3.53
2023-01-03T06:44:28.096Z,3.10
2023-01-03T06:47:14.482Z,3.53
2023-01-03T06:50:00.789Z,3.53
2023-01-03T06:52:46.719Z,3.83
2023-01-03T06:55:14.272Z,4.70
2023-01-03T06:57:42.138Z,3.30
2023-01-03T07:00:10.913Z,3.47
2023-01-03T07:02:38.397Z,3.67
2023-01-03T07:05:11.329Z,3.42
2023-01-03T07:07:38.126Z,3.97
2023-01-03T07:10:06.269Z,3.63
2023-01-03T07:13:19.205Z,3.72
2023-01-03T07:15:46.799Z,3.20
2023-01-03T07:18:14.366Z,3.03
2023-01-03T07:20:48.671Z,3.50
2023-01-03T07:23:16.097Z,3.70
2023-01-03T07:25:44.103Z,3.30
2023-01-03T07:34:01.390Z,3.25
2023-01-03T07:36:28.874Z,3.15
2023-01-03T07:39:22.091Z,2.85
2023-01-03T07:42:08.632Z,2.53
2023-01-03T07:44:36.162Z,2.92
2023-01-03T07:47:04.151Z,2.78
2023-01-03T07:49:32.234Z,2.40
2023-01-03T07:52:04.271Z,2.70
2023-01-03T07:54:32.302Z,2.88
2023-01-03T07:57:04.282Z,2.70
2023-01-03T07:59:32.107Z,2.80
2023-01-03T08:02:00.282Z,2.95
2023-01-03T08:04:28.190Z,2.08
2023-01-03T08:06:56.204Z,2.55
2023-01-03T08:10:08.311Z,2.53
2023-01-03T08:12:54.686Z,2.67
2023-01-03T08:18:15.108Z,3.25
2023-01-03T08:20:42.296Z,3.53
2023-01-03T08:23:10.778Z,2.95
2023-01-03T08:25:38.402Z,3.60
2023-01-03T08:28:08.396Z,3.10
2023-01-03T08:30:48.398Z,3.17
2023-01-03T08:33:18.475Z,3.70
2023-01-03T08:36:02.504Z,3.38
2023-01-03T08:38:44.273Z,3.65
2023-01-03T08:41:41.982Z,4.20
2023-01-03T08:44:15.623Z,3.85
2023-01-03T08:46:47.673Z,3.95
2023-01-03T08:49:16.371Z,3.90
2023-01-03T08:51:45.728Z,4.00
2023-01-03T08:54:18.127Z,4.43
2023-01-03T08:56:51.150Z,4.38
2023-01-03T08:59:18.265Z,4.40
2023-01-03T09:01:46.256Z,4.65
2023-01-03T09:04:14.310Z,4.60
2023-01-03T09:06:42.227Z,4.22
2023-01-03T09:09:10.181Z,4.15
2023-01-03T09:11:42.178Z,4.10
2023-01-03T09:17:02.063Z,4.68
2023-01-03T09:19:55.498Z,4.00
2023-01-03T09:22:24.193Z,4.68
2023-01-03T09:24:52.128Z,4.72
2023-01-03T09:27:20.173Z,4.25
2023-01-03T09:29:48.856Z,4.45
2023-01-03T09:32:16.268Z,4.50
2023-01-03T09:34:44.214Z,4.80
2023-01-03T09:37:12.231Z,4.22
2023-01-03T09:39:42.995Z,4.55
2023-01-03T09:42:56.302Z,4.32
2023-01-03T09:45:31.365Z,3.95
2023-01-03T09:47:59.799Z,4.38
2023-01-03T09:54:00.657Z,5.00
2023-01-03T09:56:46.642Z,3.95
2023-01-03T09:59:40.613Z,4.18
2023-01-03T10:02:51.891Z,3.92
2023-01-03T10:09:12.307Z,4.47
2023-01-03T10:11:52.336Z,4.60
2023-01-03T10:14:38.473Z,4.57
2023-01-03T10:17:38.520Z,4.43
2023-01-03T10:20:44.053Z,4.45
2023-01-03T10:23:12.863Z,3.95
2023-01-03T10:25:47.356Z,3.63
2023-01-03T10:32:00.475Z,4.00
2023-01-03T10:34:28.088Z,4.22
2023-01-03T10:36:56.240Z,3.95
2023-01-03T10:39:31.271Z,3.95
2023-01-03T10:41:59.794Z,3.80
2023-01-03T10:47:26.206Z,3.92
2023-01-03T10:50:06.273Z,4.53
2023-01-03T10:52:40.699Z,4.15
2023-01-03T10:55:18.491Z,3.88
2023-01-03T10:58:15.240Z,3.50
2023-01-03T11:01:26.372Z,4.35
2023-01-03T11:04:08.723Z,3.78
2023-01-03T11:06:36.595Z,3.70
2023-01-03T11:09:12.263Z,3.97
2023-01-03T11:12:11.595Z,3.70
2023-01-03T11:15:38.277Z,3.60
2023-01-03T11:18:22.288Z,3.53
2023-01-03T11:21:13.137Z,3.63
2023-01-03T11:24:04.921Z,3.80
2023-01-03T11:27:03.911Z,3.60
2023-01-03T11:30:00.830Z,4.00
2023-01-03T11:32:46.760Z,3.83
2023-01-03T11:36:04.515Z,2.90
2023-01-03T11:42:39.074Z,2.90
2023-01-03T11:45:16.037Z,3.15
2023-01-03T11:47:58.827Z,2.88
2023-01-03T11:50:50.393Z,3.03
2023-01-03T11:53:28.060Z,2.53
2023-01-03T11:56:10.196Z,2.05
2023-01-03T11:59:15.683Z,2.25
2023-01-03T12:02:02.758Z,2.30
2023-01-03T12:07:47.111Z,2.20
2023-01-03T12:10:19.826Z,1.80
2023-01-03T12:13:05.969Z,1.95
2023-01-03T12:15:42.029Z,1.70
2023-01-03T12:18:16.035Z,1.80
2023-01-03T12:20:51.923Z,1.80
2023-01-03T12:23:36.455Z,1.75
2023-01-03T12:26:08.683Z,1.40
2023-01-03T12:29:16.834Z,1.45
2023-01-03T12:31:49.593Z,2.13
2023-01-03T12:34:25.840Z,2.15
2023-01-03T12:40:41.452Z,1.90
2023-01-03T12:43:32.193Z,2.22
2023-01-03T12:46:18.899Z,1.90
2023-01-03T12:49:13.150Z,1.95
2023-01-03T12:51:40.141Z,1.80
2023-01-03T12:54:47.550Z,1.83
2023-01-03T12:57:42.502Z,2.00
2023-01-03T13:00:30.976Z,2.15
2023-01-03T13:03:02.229Z,1.95
2023-01-03T13:05:44.029Z,2.53
2023-01-03T13:08:37.325Z,2.80
2023-01-03T13:11:35.797Z,3.35
2023-01-03T13:14:28.069Z,3.17
2023-01-03T13:17:17.338Z,2.33
2023-01-03T13:19:57.099Z,2.40
2023-01-03T13:22:47.328Z,2.45
2023-01-03T13:25:39.097Z,2.33
2023-01-03T13:28:18.381Z,2.42
2023-01-03T13:30:50.467Z,2.30
2023-01-03T13:34:17.115Z,2.40
2023-01-03T13:37:16.245Z,2.53
2023-01-03T13:39:50.262Z,3.22
2023-01-03T13:42:27.165Z,3.60
2023-01-03T13:45:17.526Z,4.13
2023-01-03T13:47:48.784Z,2.80
2023-01-03T13:50:36.393Z,2.60
2023-01-03T13:53:10.217Z,2.28
2023-01-03T13:55:54.548Z,2.70
2023-01-03T14:01:52.876Z,3.00
2023-01-03T14:08:01.620Z,2.80
2023-01-03T14:10:40.307Z,2.90
2023-01-03T14:13:30.348Z,2.70
2023-01-03T14:16:24.822Z,2.83
2023-01-03T14:19:12.297Z,2.72
2023-01-03T14:21:45.100Z,3.03
2023-01-03T14:24:22.398Z,3.05
2023-01-03T14:26:50.643Z,3.08
2023-01-03T14:29:22.174Z,3.65
2023-01-03T14:31:55.986Z,3.78
2023-01-03T14:34:34.909Z,3.22
2023-01-03T14:37:26.687Z,3.40
2023-01-03T14:40:24.899Z,3.22
2023-01-03T14:42:58.155Z,3.03
2023-01-03T14:45:31.168Z,3.00
2023-01-03T14:47:58.332Z,3.22
2023-01-03T14:50:29.209Z,3.30
2023-01-03T14:52:58.763Z,2.58
2023-01-03T14:55:33.390Z,3.33
2023-01-03T14:58:29.743Z,3.75
2023-01-03T15:01:00.992Z,3.50
2023-01-03T15:03:33.212Z,3.92
2023-01-03T15:06:01.084Z,3.75
2023-01-03T15:08:32.009Z,3.58
2023-01-03T15:11:13.273Z,4.22
2023-01-03T15:13:49.269Z,3.85
2023-01-03T15:16:38.075Z,3.88
2023-01-03T15:22:26.182Z,3.95
2023-01-03T15:25:21.622Z,3.80
2023-01-03T15:27:50.816Z,4.03
2023-01-03T15:30:22.446Z,5.00
2023-01-03T15:33:19.823Z,4.35
2023-01-03T15:35:51.094Z,4.10
2023-01-03T15:38:36.037Z,4.78
2023-01-03T15:41:49.037Z,4.82
2023-01-03T15:44:23.480Z,3.97
2023-01-03T15:46:56.940Z,4.07
2023-01-03T15:49:26.711Z,4.13
2023-01-03T15:52:00.144Z,4.20
2023-01-03T15:54:28.360Z,4.82
2023-01-03T15:57:03.418Z,5.75
2023-01-03T15:59:43.285Z,4.13
2023-01-03T16:02:41.545Z,4.60
2023-01-03T16:05:22.393Z,4.78
2023-01-03T16:07:56.075Z,5.70
2023-01-03T16:10:24.116Z,4.80
2023-01-03T16:12:52.149Z,4.80
2023-01-03T16:15:22.513Z,5.00
2023-01-03T16:17:51.224Z,5.78
2023-01-03T16:20:24.294Z,5.65
2023-01-03T16:23:00.407Z,5.63
2023-01-03T16:25:28.841Z,6.93
2023-01-03T16:27:56.437Z,6.00
2023-01-03T16:30:28.262Z,6.22
2023-01-03T16:32:56.214Z,7.13
2023-01-03T16:35:24.230Z,6.32
2023-01-03T16:37:52.208Z,7.60
2023-01-03T16:43:12.181Z,8.27
2023-01-03T16:45:47.049Z,8.00
2023-01-03T16:48:22.226Z,8.07
2023-01-03T16:53:44.946Z,7.68
2023-01-03T16:56:12.631Z,8.20
2023-01-03T16:58:40.258Z,8.35
2023-01-03T17:01:08.434Z,8.13
2023-01-03T17:03:41.580Z,7.80
2023-01-03T17:06:22.801Z,8.13
2023-01-03T17:08:50.324Z,8.15
2023-01-03T17:11:18.418Z,9.25
2023-01-03T17:13:48.397Z,8.40
2023-01-03T17:16:19.222Z,8.10
2023-01-03T17:18:47.072Z,7.95
2023-01-03T17:21:27.915Z,8.55
2023-01-03T17:24:00.451Z,8.43
2023-01-03T17:26:31.449Z,8.30
2023-01-03T17:29:00.783Z,8.30
2023-01-03T17:31:28.737Z,9.05
2023-01-03T17:34:32.724Z,8.43
2023-01-03T17:37:00.869Z,8.63
2023-01-03T17:39:28.518Z,8.63
2023-01-03T17:42:16.244Z,8.63
2023-01-03T17:45:05.374Z,9.20
2023-01-03T17:47:58.292Z,8.55
2023-01-03T17:50:27.428Z,8.85
2023-01-03T17:53:03.524Z,10.60
2023-01-03T17:55:32.561Z,12.13
2023-01-03T17:58:31.355Z,9.75
2023-01-03T18:01:05.713Z,9.70
2023-01-03T18:03:39.992Z,8.75
2023-01-03T18:06:17.797Z,10.07
2023-01-03T18:08:47.649Z,9.73
2023-01-03T18:11:23.574Z,10.10
2023-01-03T18:16:47.676Z,9.50
2023-01-03T18:19:20.178Z,9.20
2023-01-03T18:27:32.800Z,9.77
2023-01-03T18:30:00.140Z,10.40
2023-01-03T18:32:34.197Z,11.15
2023-01-03T18:35:02.632Z,10.27
2023-01-03T18:37:37.574Z,9.55
2023-01-03T18:40:32.789Z,11.15
2023-01-03T18:43:14.157Z,10.95
2023-01-03T18:45:42.526Z,9.73
2023-01-03T18:48:21.420Z,10.55
2023-01-03T18:50:58.337Z,9.48
2023-01-03T18:53:56.374Z,9.77
2023-01-03T18:56:32.181Z,11.27
2023-01-03T19:01:56.209Z,10.43
2023-01-03T19:04:24.070Z,11.05
2023-01-03T19:06:52.405Z,10.13
2023-01-03T19:09:22.748Z,11.43
2023-01-03T19:11:51.295Z,11.82
2023-01-03T19:14:46.756Z,9.32
2023-01-03T19:17:16.891Z,10.90
2023-01-03T19:19:50.135Z,11.38
2023-01-03T19:22:28.926Z,10.27
2023-01-03T19:25:00.697Z,10.27
2023-01-03T19:27:37.118Z,10.98
2023-01-03T19:30:05.815Z,10.50
2023-01-03T19:32:34.905Z,10.68
2023-01-03T19:35:02.194Z,11.18
2023-01-03T19:37:30.187Z,9.90
2023-01-03T19:40:02.687Z,11.02
2023-01-03T19:42:56.434Z,10.43
2023-01-03T19:45:36.788Z,10.68
2023-01-03T19:48:17.970Z,11.25
2023-01-03T19:50:46.774Z,10.85
2023-01-03T19:53:14.273Z,10.43
2023-01-03T19:55:44.921Z,10.05
2023-01-03T19:58:25.326Z,10.25
2023-01-03T20:00:53.059Z,10.75
2023-01-03T20:03:34.206Z,10.65
2023-01-03T20:08:54.502Z,10.20
2023-01-03T20:11:28.199Z,10.13
2023-01-03T20:13:57.223Z,10.35
2023-01-03T20:16:30.276Z,10.55
2023-01-03T20:18:58.103Z,10.35
2023-01-03T20:21:30.547Z,9.38
2023-01-03T20:24:01.740Z,9.43
2023-01-03T20:26:32.614Z,9.70
2023-01-03T20:29:00.571Z,8.63
2023-01-03T20:31:33.207Z,10.40
2023-01-03T20:34:01.054Z,9.50
2023-01-03T20:39:29.305Z,8.32
2023-01-03T20:42:03.798Z,8.77
2023-01-03T20:44:32.081Z,8.70
2023-01-03T20:47:04.366Z,9.35
2023-01-03T20:49:32.189Z,8.80
2023-01-03T20:52:00.153Z,9.38
2023-01-03T20:54:28.080Z,9.07
2023-01-03T20:57:26.278Z,8.70
2023-01-03T20:59:54.137Z,8.75
2023-01-03T21:02:27.315Z,9.10
2023-01-03T21:04:54.112Z,7.63
2023-01-03T21:07:50.476Z,8.98
2023-01-03T21:10:24.605Z,8.00
2023-01-03T21:12:52.292Z,8.45
2023-01-03T21:15:20.429Z,8.05
2023-01-03T21:17:51.045Z,9.57
2023-01-03T21:20:26.863Z,8.32
2023-01-03T21:23:23.914Z,8.32
2023-01-03T21:26:19.968Z,7.20
2023-01-03T21:28:48.138Z,7.68
2023-01-03T21:34:25.920Z,7.47
2023-01-03T21:36:54.275Z,6.45
2023-01-03T21:39:22.137Z,7.45
2023-01-03T21:42:12.879Z,6.55
2023-01-03T21:44:40.164Z,5.95
2023-01-03T21:47:08.757Z,6.72
2023-01-03T22:03:43.828Z,5.78
2023-01-03T22:06:13.746Z,6.45
2023-01-03T22:08:42.100Z,6.22
2023-01-03T22:11:12.664Z,5.78
2023-01-03T22:13:40.284Z,5.10
2023-01-03T22:16:10.051Z,6.22
2023-01-03T22:21:56.068Z,5.78
2023-01-03T22:24:24.152Z,5.78
2023-01-03T22:26:52.119Z,6.20
2023-01-03T22:29:20.247Z,5.55
2023-01-03T22:31:48.196Z,5.63
2023-01-03T22:34:16.116Z,5.43
2023-01-03T22:36:44.121Z,5.25
2023-01-03T22:39:16.127Z,5.22
2023-01-03T22:41:44.126Z,5.30
2023-01-03T22:44:12.218Z,5.00
2023-01-03T22:46:40.181Z,4.60
2023-01-03T22:49:08.093Z,4.85
2023-01-03T22:51:36.182Z,4.57
2023-01-03T22:54:08.113Z,4.63
2023-01-03T22:56:36.121Z,4.93
2023-01-03T22:59:30.261Z,4.35
2023-01-03T23:01:58.674Z,4.68
2023-01-03T23:04:27.864Z,4.18
2023-01-03T23:06:56.193Z,4.03
2023-01-03T23:09:24.391Z,4.07
2023-01-03T23:12:10.920Z,4.00
2023-01-03T23:14:38.125Z,3.55
2023-01-03T23:17:25.600Z,4.38
2023-01-03T23:19:58.895Z,3.70
2023-01-03T23:22:27.974Z,3.80
2023-01-03T23:25:27.052Z,3.58
2023-01-03T23:27:54.052Z,3.55
2023-01-03T23:30:22.294Z,3.65
2023-01-03T23:32:50.215Z,3.47
2023-01-03T23:35:42.149Z,3.33
2023-01-03T23:38:10.318Z,3.20
2023-01-03T23:43:34.603Z,3.15
2023-01-03T23:46:03.303Z,3.28
2023-01-03T23:48:30.658Z,3.40
2023-01-03T23:56:50.396Z,2.13
2023-01-03T23:59:18.299Z,2.38
